Time,TemperatureF,DewpointF,PressureIn,WindDirection,WindDirectionDegrees,WindSpeedMPH,WindSpeedGustMPH,Humidity,HourlyPrecipIn,Conditions,Clouds,dailyrainin,SoftwareType,DateUTC
2013-05-26 00:05:00,77.3,68.0,30.12,East,82,11.0,-999.0,72,-99.99,,,0.00,weatherlink.com 1.10,2013-05-26 04:05:00,
2013-05-26 00:20:00,77.1,67.0,30.12,East,85,7.0,-999.0,72,-99.99,,,0.00,weatherlink.com 1.10,2013-05-26 04:20:00,
2013-05-26 00:35:00,76.8,68.0,30.13,East,81,11.0,-999.0,73,-99.99,,,0.00,weatherlink.com 1.10,2013-05-26 04:35:00,
2013-05-26 00:50:00,76.6,67.0,30.14,ESE,110,6.0,-999.0,72,-99.99,,,0.00,weatherlink.com 1.10,2013-05-26 04:50:00,
2013-05-26 01:05:00,76.3,67.0,30.13,ESE,120,7.0,-999.0,74,-99.99,,,0.00,weatherlink.com 1.10,2013-05-26 05:05:00,
2013-05-26 01:20:00,76.2,67.0,30.13,East,98,6.0,-999.0,74,-99.99,,,0.00,weatherlink.com 1.10,2013-05-26 05:20:00,
2013-05-26 01:35:00,75.9,67.0,30.13,SE,142,13.0,-999.0,75,-99.99,,,0.00,weatherlink.com 1.10,2013-05-26 05:35:00,
2013-05-26 01:50:00,75.7,68.0,30.12,ESE,110,16.0,-999.0,76,-99.99,,,0.00,weatherlink.com 1.10,2013-05-26 05:50:00,
2013-05-26 02:05:00,75.4,67.0,30.12,East,86,7.0,-999.0,76,-99.99,,,0.00,weatherlink.com 1.10,2013-05-26 06:05:00,
2013-05-26 02:20:00,75.3,68.0,30.12,East,94,7.0,-999.0,77,-99.99,,,0.00,weatherlink.com 1.10,2013-05-26 06:20:00,
2013-05-26 02:35:00,74.9,67.0,30.11,East,84,11.0,-999.0,77,-99.99,,,0.00,weatherlink.com 1.10,2013-05-26 06:35:00,
2013-05-26 02:50:00,74.8,67.0,30.11,East,89,10.0,-999.0,76,-99.99,,,0.00,weatherlink.com 1.10,2013-05-26 06:50:00,
2013-05-26 03:05:00,74.7,67.0,30.11,SE,140,4.0,-999.0,77,-99.99,,,0.00,weatherlink.com 1.10,2013-05-26 07:05:00,
2013-05-26 03:20:00,74.4,66.0,30.10,ESE,117,5.0,-999.0,76,-99.99,,,0.00,weatherlink.com 1.10,2013-05-26 07:20:00,
2013-05-26 03:35:00,74.3,67.0,30.10,ESE,109,4.0,-999.0,77,-99.99,,,0.00,weatherlink.com 1.10,2013-05-26 07:35:00,
2013-05-26 03:50:00,74.3,67.0,30.11,East,91,7.0,-999.0,77,-99.99,,,0.00,weatherlink.com 1.10,2013-05-26 07:50:00,
2013-05-26 04:05:00,74.3,66.0,30.11,East,90,11.0,-999.0,76,-99.99,,,0.00,weatherlink.com 1.10,2013-05-26 08:05:00,
2013-05-26 04:20:00,74.2,66.0,30.10,East,96,7.0,-999.0,76,-99.99,,,0.00,weatherlink.com 1.10,2013-05-26 08:20:00,
2013-05-26 04:35:00,74.1,66.0,30.11,SE,133,3.0,-999.0,75,-99.99,,,0.00,weatherlink.com 1.10,2013-05-26 08:35:00,
2013-05-26 04:50:00,74.1,66.0,30.11,East,87,4.0,-999.0,77,-99.99,,,0.00,weatherlink.com 1.10,2013-05-26 08:50:00,
2013-05-26 05:05:00,73.8,65.0,30.11,SE,135,6.0,-999.0,75,-99.99,,,0.00,weatherlink.com 1.10,2013-05-26 09:05:00,
2013-05-26 05:20:00,73.7,65.0,30.11,ESE,123,2.0,-999.0,75,-99.99,,,0.00,weatherlink.com 1.10,2013-05-26 09:20:00,
2013-05-26 05:35:00,73.5,65.0,30.11,ESE,121,4.0,-999.0,75,-99.99,,,0.00,weatherlink.com 1.10,2013-05-26 09:35:00,
2013-05-26 05:50:00,73.6,66.0,30.11,ENE,78,5.0,-999.0,76,-99.99,,,0.00,weatherlink.com 1.10,2013-05-26 09:50:00,
2013-05-26 06:05:00,73.4,66.0,30.11,ESE,119,4.0,-999.0,77,-99.99,,,0.00,weatherlink.com 1.10,2013-05-26 10:05:00,
2013-05-26 06:20:00,73.2,65.0,30.11,East,90,4.0,-999.0,76,-99.99,,,0.00,weatherlink.com 1.10,2013-05-26 10:20:00,
2013-05-26 06:35:00,73.2,66.0,30.12,East,91,4.0,-999.0,77,-99.99,,,0.00,weatherlink.com 1.10,2013-05-26 10:35:00,
2013-05-26 06:50:00,73.0,66.0,30.11,East,89,7.0,-999.0,78,-99.99,,,0.00,weatherlink.com 1.10,2013-05-26 10:50:00,
2013-05-26 07:05:00,73.1,66.0,30.12,East,81,5.0,-999.0,78,-99.99,,,0.00,weatherlink.com 1.10,2013-05-26 11:05:00,
2013-05-26 07:20:00,72.4,66.0,30.12,ENE,68,6.0,-999.0,80,-99.99,,,0.00,weatherlink.com 1.10,2013-05-26 11:20:00,
2013-05-26 07:35:00,72.2,66.0,30.13,ENE,75,8.0,-999.0,80,-99.99,,,0.00,weatherlink.com 1.10,2013-05-26 11:35:00,
2013-05-26 07:50:00,72.4,66.0,30.12,East,88,9.0,-999.0,81,-99.99,,,0.00,weatherlink.com 1.10,2013-05-26 11:50:00,
2013-05-26 08:05:00,72.9,65.0,30.13,East,81,8.0,-999.0,76,-99.99,,,0.00,weatherlink.com 1.10,2013-05-26 12:05:00,
2013-05-26 08:20:00,73.3,65.0,30.14,East,84,7.0,-999.0,74,-99.99,,,0.00,weatherlink.com 1.10,2013-05-26 12:20:00,
2013-05-26 08:35:00,73.7,64.0,30.14,East,98,4.0,-999.0,72,-99.99,,,0.00,weatherlink.com 1.10,2013-05-26 12:35:00,
2013-05-26 08:50:00,73.7,65.0,30.15,ESE,106,0.0,-999.0,73,-99.99,,,0.00,weatherlink.com 1.10,2013-05-26 12:50:00,
2013-05-26 09:05:00,74.1,64.0,30.15,East,84,7.0,-999.0,70,-99.99,,,0.00,weatherlink.com 1.10,2013-05-26 13:05:00,
2013-05-26 09:20:00,74.6,62.0,30.16,East,92,7.0,-999.0,66,-99.99,,,0.00,weatherlink.com 1.10,2013-05-26 13:20:00,
2013-05-26 09:35:00,74.9,63.0,30.16,East,79,9.0,-999.0,67,-99.99,,,0.00,weatherlink.com 1.10,2013-05-26 13:35:00,
2013-05-26 09:50:00,75.2,63.0,30.17,East,98,3.0,-999.0,65,-99.99,,,0.00,weatherlink.com 1.10,2013-05-26 13:50:00,
2013-05-26 10:05:00,75.2,62.0,30.17,ENE,71,9.0,-999.0,64,-99.99,,,0.00,weatherlink.com 1.10,2013-05-26 14:05:00,
2013-05-26 10:20:00,75.2,62.0,30.17,East,94,4.0,-999.0,63,-99.99,,,0.00,weatherlink.com 1.10,2013-05-26 14:20:00,
2013-05-26 10:35:00,75.6,63.0,30.17,ENE,76,9.0,-999.0,64,-99.99,,,0.00,weatherlink.com 1.10,2013-05-26 14:35:00,
2013-05-26 10:50:00,75.8,62.0,30.17,East,91,4.0,-999.0,63,-99.99,,,0.00,weatherlink.com 1.10,2013-05-26 14:50:00,
2013-05-26 11:05:00,76.0,62.0,30.16,East,87,3.0,-999.0,62,-99.99,,,0.00,weatherlink.com 1.10,2013-05-26 15:05:00,
2013-05-26 11:20:00,76.6,62.0,30.16,East,93,7.0,-999.0,60,-99.99,,,0.00,weatherlink.com 1.10,2013-05-26 15:20:00,
2013-05-26 11:35:00,77.1,61.0,30.16,East,82,4.0,-999.0,58,-99.99,,,0.00,weatherlink.com 1.10,2013-05-26 15:35:00,
2013-05-26 11:50:00,77.5,61.0,30.16,East,98,4.0,-999.0,57,-99.99,,,0.00,weatherlink.com 1.10,2013-05-26 15:50:00,
2013-05-26 12:05:00,78.0,61.0,30.15,NNE,16,6.0,-999.0,56,-99.99,,,0.00,weatherlink.com 1.10,2013-05-26 16:05:00,
2013-05-26 12:20:00,78.2,61.0,30.15,NE,55,5.0,-999.0,55,-99.99,,,0.00,weatherlink.com 1.10,2013-05-26 16:20:00,
2013-05-26 12:35:00,78.7,58.0,30.15,ENE,71,5.0,-999.0,49,-99.99,,,0.00,weatherlink.com 1.10,2013-05-26 16:35:00,
2013-05-26 12:50:00,79.1,60.0,30.15,East,91,3.0,-999.0,53,-99.99,,,0.00,weatherlink.com 1.10,2013-05-26 16:50:00,
2013-05-26 13:05:00,79.7,59.0,30.14,NE,38,4.0,-999.0,49,-99.99,,,0.00,weatherlink.com 1.10,2013-05-26 17:05:00,
2013-05-26 13:20:00,80.1,60.0,30.14,ENE,59,7.0,-999.0,50,-99.99,,,0.00,weatherlink.com 1.10,2013-05-26 17:20:00,
2013-05-26 13:35:00,80.6,58.0,30.14,North,355,0.0,-999.0,46,-99.99,,,0.00,weatherlink.com 1.10,2013-05-26 17:35:00,
2013-05-26 13:50:00,81.1,58.0,30.13,NE,56,7.0,-999.0,46,-99.99,,,0.00,weatherlink.com 1.10,2013-05-26 17:50:00,
2013-05-26 14:05:00,81.2,56.0,30.14,NE,52,2.0,-999.0,42,-99.99,,,0.00,weatherlink.com 1.10,2013-05-26 18:05:00,
2013-05-26 14:20:00,81.7,54.0,30.13,NE,52,4.0,-999.0,39,-99.99,,,0.00,weatherlink.com 1.10,2013-05-26 18:20:00,
2013-05-26 14:35:00,82.1,53.0,30.12,NE,52,4.0,-999.0,37,-99.99,,,0.00,weatherlink.com 1.10,2013-05-26 18:35:00,
2013-05-26 14:50:00,82.3,53.0,30.12,NE,48,4.0,-999.0,37,-99.99,,,0.00,weatherlink.com 1.10,2013-05-26 18:50:00,
2013-05-26 15:05:00,82.8,61.0,30.12,NNW,341,2.0,-999.0,47,-99.99,,,0.00,weatherlink.com 1.10,2013-05-26 19:05:00,
2013-05-26 15:20:00,83.0,61.0,30.11,NW,309,1.0,-999.0,48,-99.99,,,0.00,weatherlink.com 1.10,2013-05-26 19:20:00,
2013-05-26 15:35:00,83.4,63.0,30.11,WNW,283,1.0,-999.0,50,-99.99,,,0.00,weatherlink.com 1.10,2013-05-26 19:35:00,
2013-05-26 15:50:00,83.2,64.0,30.10,West,267,0.0,-999.0,52,-99.99,,,0.00,weatherlink.com 1.10,2013-05-26 19:50:00,
2013-05-26 16:05:00,84.2,62.0,30.09,West,267,2.0,-999.0,48,-99.99,,,0.00,weatherlink.com 1.10,2013-05-26 20:05:00,
2013-05-26 16:20:00,84.3,62.0,30.09,WNW,294,3.0,-999.0,47,-99.99,,,0.00,weatherlink.com 1.10,2013-05-26 20:20:00,
2013-05-26 16:35:00,84.0,62.0,30.09,WNW,293,2.0,-999.0,48,-99.99,,,0.00,weatherlink.com 1.10,2013-05-26 20:35:00,
2013-05-26 16:50:00,82.3,62.0,30.09,North,5,0.0,-999.0,51,-99.99,,,0.00,weatherlink.com 1.10,2013-05-26 20:50:00,
2013-05-26 17:05:00,83.1,58.0,30.08,ENE,61,1.0,-999.0,42,-99.99,,,0.00,weatherlink.com 1.10,2013-05-26 21:05:00,
2013-05-26 17:20:00,83.8,59.0,30.08,ESE,118,2.0,-999.0,43,-99.99,,,0.00,weatherlink.com 1.10,2013-05-26 21:20:00,
2013-05-26 17:35:00,83.7,60.0,30.07,East,95,3.0,-999.0,44,-99.99,,,0.00,weatherlink.com 1.10,2013-05-26 21:35:00,
2013-05-26 17:50:00,83.6,60.0,30.07,ENE,74,7.0,-999.0,45,-99.99,,,0.00,weatherlink.com 1.10,2013-05-26 21:50:00,
2013-05-26 18:05:00,83.5,59.0,30.06,ENE,64,6.0,-999.0,44,-99.99,,,0.00,weatherlink.com 1.10,2013-05-26 22:05:00,
2013-05-26 18:20:00,83.5,60.0,30.06,East,82,5.0,-999.0,45,-99.99,,,0.00,weatherlink.com 1.10,2013-05-26 22:20:00,
2013-05-26 18:35:00,83.4,59.0,30.06,East,94,5.0,-999.0,44,-99.99,,,0.00,weatherlink.com 1.10,2013-05-26 22:35:00,
2013-05-26 18:50:00,83.2,60.0,30.06,East,90,8.0,-999.0,45,-99.99,,,0.00,weatherlink.com 1.10,2013-05-26 22:50:00,
2013-05-26 19:05:00,83.2,60.0,30.06,East,92,3.0,-999.0,45,-99.99,,,0.00,weatherlink.com 1.10,2013-05-26 23:05:00,
2013-05-26 19:20:00,83.1,60.0,30.06,East,96,5.0,-999.0,45,-99.99,,,0.00,weatherlink.com 1.10,2013-05-26 23:20:00,
2013-05-26 19:35:00,83.0,61.0,30.06,East,95,8.0,-999.0,48,-99.99,,,0.00,weatherlink.com 1.10,2013-05-26 23:35:00,
2013-05-26 19:50:00,83.0,61.0,30.07,East,92,5.0,-999.0,47,-99.99,,,0.00,weatherlink.com 1.10,2013-05-26 23:50:00,
2013-05-26 20:05:00,82.9,59.0,30.07,East,88,7.0,-999.0,44,-99.99,,,0.00,weatherlink.com 1.10,2013-05-27 00:05:00,
2013-05-26 20:20:00,82.6,60.0,30.07,East,92,5.0,-999.0,46,-99.99,,,0.00,weatherlink.com 1.10,2013-05-27 00:20:00,
2013-05-26 20:35:00,82.4,62.0,30.07,East,87,7.0,-999.0,50,-99.99,,,0.00,weatherlink.com 1.10,2013-05-27 00:35:00,
2013-05-26 20:50:00,81.7,63.0,30.07,East,82,5.0,-999.0,54,-99.99,,,0.00,weatherlink.com 1.10,2013-05-27 00:50:00,
2013-05-26 21:05:00,81.2,63.0,30.07,East,82,3.0,-999.0,55,-99.99,,,0.00,weatherlink.com 1.10,2013-05-27 01:05:00,
2013-05-26 21:20:00,81.2,62.0,30.08,East,82,2.0,-999.0,53,-99.99,,,0.00,weatherlink.com 1.10,2013-05-27 01:20:00,
2013-05-26 21:35:00,80.7,63.0,30.08,East,82,3.0,-999.0,55,-99.99,,,0.00,weatherlink.com 1.10,2013-05-27 01:35:00,
2013-05-26 21:50:00,80.3,63.0,30.08,East,82,4.0,-999.0,55,-99.99,,,0.00,weatherlink.com 1.10,2013-05-27 01:50:00,
2013-05-26 22:05:00,80.2,64.0,30.09,East,90,9.0,-999.0,59,-99.99,,,0.00,weatherlink.com 1.10,2013-05-27 02:05:00,
2013-05-26 22:20:00,79.8,65.0,30.10,East,89,13.0,-999.0,60,-99.99,,,0.00,weatherlink.com 1.10,2013-05-27 02:20:00,
2013-05-26 22:35:00,79.2,66.0,30.11,ENE,75,7.0,-999.0,64,-99.99,,,0.00,weatherlink.com 1.10,2013-05-27 02:35:00,
2013-05-26 22:50:00,78.6,66.0,30.11,East,95,14.0,-999.0,66,-99.99,,,0.00,weatherlink.com 1.10,2013-05-27 02:50:00,
2013-05-26 23:05:00,78.0,67.0,30.11,East,85,13.0,-999.0,68,-99.99,,,0.00,weatherlink.com 1.10,2013-05-27 03:05:00,
2013-05-26 23:20:00,77.6,67.0,30.11,ENE,72,14.0,-999.0,70,-99.99,,,0.00,weatherlink.com 1.10,2013-05-27 03:20:00,
2013-05-26 23:35:00,77.3,67.0,30.12,East,94,11.0,-999.0,71,-99.99,,,0.00,weatherlink.com 1.10,2013-05-27 03:35:00,
2013-05-26 23:50:00,76.9,67.0,30.12,East,94,6.0,-999.0,72,-99.99,,,0.00,weatherlink.com 1.10,2013-05-27 03:50:00,